Etusivu
METAR-TAF:

METAR-TAF

Lentoasemat :

Lycksele, Ruotsi

Leveyspiiri: 64-32-51N, Pituuspiiri: 018-43-03E, korkeus merenpinnasta: 211 m

Tämänhetkinen sää

Tämä raportti tehtiin 10 minuuttia sitten, kello 23.50 UTC
tyyntä
Lämpötila -28°C
Kosteus 75%
Ilmanpaine 1032 hPa
Näkyvyys 10 km tai enemmän

METAR: ESNL 142350Z AUTO 00000KT 9999 NCD M28/M31 Q1032

Aika: 01:00 (00:00 UTC)


TAF: puuttuu

Säähavainnot ja -ennusteet yli 4000 lentoasemalta (METAR- ja TAF-raportit).

Käytössä olevat sääasemat on merkitty karttaan keltaisilla ja punaisilla pisteillä.

Aseta hiiri pisteen päälle nähdäksesi sääaseman nimen.

Klikkaa sitten nähdäksesi säähavainnot ja -ennusteet.

Kartan vaihtaminen: klikkaa mustalla rastilla varustettuja vihreitä pisteitä, niin voit zoomata sisään; viivalla varustettua vihreää pistettä, niin voit zoomata ulos tai vihreitä nuolia, niin pääset viereisille kartoille.


METAR-TAF: